Time;durP1;ratioP1;P1;durP2;ratioP2;P2;SDS_P1;SDS_P2;PMS_P1;PMS_P2;Temp;Humidity;BMP_temperature;BMP_pressure;BME280_temperature;BME280_humidity;BME280_pressure;Samples;Min_cycle;Max_cycle;Signal;HPM_P1;HPM_P2
2023/03/08 00:01:17;;;;;;;;;;;;;;;22.40;26.31;97078.56;5057115;28;830;-81
2023/03/08 00:03:43;;;;;;;;;;;;;;;21.94;26.90;97091.88;5057378;28;928;-81
2023/03/08 00:06:10;;;;;;;;;;;;;;;21.90;27.07;97091.22;5017356;28;1095;-80
2023/03/08 00:08:36;;;;;;;;;;;;;;;21.63;27.11;97095.56;5017077;28;1910;-81
2023/03/08 00:11:08;;;;;;;;;;;;;;;21.82;27.58;97094.34;5014392;28;957;-81
2023/03/08 00:13:33;;;;;;;;;;;;;;;22.19;26.76;97097.28;4997478;28;968;-81
2023/03/08 00:16:02;;;;;;;;;;;;;;;22.26;26.75;97096.16;5014803;28;1171;-81
2023/03/08 00:18:28;;;;;;;;;;;;;;;21.81;26.95;97089.97;4997582;28;952;-81
2023/03/08 00:20:59;;;;;;;;;;;;;;;21.79;27.35;97094.50;4998036;28;1072;-81
2023/03/08 00:23:25;;;;;;;;;;;;;;;21.72;27.21;97095.59;4994299;28;826;-81
2023/03/08 00:25:51;;;;;;;;;;;;;;;22.01;27.32;97088.72;4978149;28;1161;-81
2023/03/08 00:28:17;;;;;;;;;;;;;;;22.17;27.06;97088.44;4994085;28;1158;-81
2023/03/08 00:30:43;;;;;;;;;;;;;;;22.44;26.47;97084.06;4994520;28;1906;-82
2023/03/08 00:33:08;;;;;;;;;;;;;;;21.90;26.75;97080.69;4994389;28;1123;-81
2023/03/08 00:35:35;;;;;;;;;;;;;;;21.88;27.13;97088.06;4994487;28;1389;-81
2023/03/08 00:38:01;;;;;;;;;;;;;;;21.70;26.87;97083.94;5045384;28;1232;-81
2023/03/08 00:40:26;;;;;;;;;;;;;;;22.33;26.79;97078.88;5033704;28;833;-81
2023/03/08 00:42:52;;;;;;;;;;;;;;;22.08;26.87;97074.25;5033628;28;950;-81
2023/03/08 00:45:17;;;;;;;;;;;;;;;22.07;26.88;97072.66;5000881;28;1219;-81
2023/03/08 00:47:43;;;;;;;;;;;;;;;21.68;27.38;97069.47;5012887;28;1240;-81
2023/03/08 00:50:09;;;;;;;;;;;;;;;21.98;26.66;97069.84;5060498;28;1910;-81
2023/03/08 00:52:35;;;;;;;;;;;;;;;21.69;27.47;97068.19;5080552;28;930;-81
2023/03/08 00:55:00;;;;;;;;;;;;;;;22.19;26.78;97065.31;5080981;28;911;-81
2023/03/08 00:57:26;;;;;;;;;;;;;;;22.17;27.08;97065.78;5064500;28;872;-81
2023/03/08 00:59:51;;;;;;;;;;;;;;;21.96;27.03;97066.69;5061498;28;1109;-81
2023/03/08 01:02:17;;;;;;;;;;;;;;;21.87;26.94;97069.53;5078883;28;1049;-81
2023/03/08 01:04:43;;;;;;;;;;;;;;;21.89;27.01;97072.66;5062094;28;1646;-81
2023/03/08 01:07:08;;;;;;;;;;;;;;;21.67;27.70;97073.56;5077813;28;1108;-81
2023/03/08 01:09:37;;;;;;;;;;;;;;;22.17;27.08;97071.44;5062007;28;1918;-81
2023/03/08 01:12:02;;;;;;;;;;;;;;;22.43;26.40;97071.13;5061969;28;1306;-81
2023/03/08 01:14:29;;;;;;;;;;;;;;;22.16;26.58;97064.22;5080334;28;1332;-81
2023/03/08 01:16:54;;;;;;;;;;;;;;;22.03;26.68;97066.38;5097269;28;1245;-81
2023/03/08 01:19:20;;;;;;;;;;;;;;;21.79;27.05;97069.81;5080177;28;1056;-81
2023/03/08 01:21:45;;;;;;;;;;;;;;;21.91;27.14;97064.47;5063657;28;1190;-81
2023/03/08 01:24:11;;;;;;;;;;;;;;;22.42;26.38;97058.22;5063537;28;1151;-81
2023/03/08 01:26:37;;;;;;;;;;;;;;;22.45;26.49;97062.97;5063420;28;1124;-81
2023/03/08 01:29:02;;;;;;;;;;;;;;;22.04;26.97;97074.41;5080199;28;1914;-81
2023/03/08 01:31:28;;;;;;;;;;;;;;;21.93;26.83;97059.13;5063832;28;1178;-81
2023/03/08 01:33:55;;;;;;;;;;;;;;;21.66;27.16;97055.00;5079978;28;896;-81
2023/03/08 01:36:21;;;;;;;;;;;;;;;21.97;27.17;97060.56;5063446;28;1220;-81
2023/03/08 01:38:47;;;;;;;;;;;;;;;22.14;26.90;97048.94;5063240;28;1400;-81
2023/03/08 01:41:14;;;;;;;;;;;;;;;22.36;26.60;97056.03;5063159;28;1190;-81
2023/03/08 01:43:39;;;;;;;;;;;;;;;21.81;27.21;97058.00;5063076;28;1185;-81
2023/03/08 01:46:25;;;;;;;;;;;;;;;21.72;27.28;97058.78;5061206;28;1287;-80
2023/03/08 01:49:14;;;;;;;;;;;;;;;21.65;27.34;97052.63;5077648;28;1976;-81
2023/03/08 01:51:59;;;;;;;;;;;;;;;22.00;27.11;97050.31;5078458;28;1167;-81
2023/03/08 01:54:25;;;;;;;;;;;;;;;22.32;26.68;97044.06;5078637;28;860;-81
2023/03/08 01:56:51;;;;;;;;;;;;;;;22.00;26.75;97056.00;5077162;28;881;-81
2023/03/08 01:59:17;;;;;;;;;;;;;;;21.76;27.07;97056.59;5061050;28;1071;-81
2023/03/08 02:01:43;;;;;;;;;;;;;;;21.78;26.93;97051.25;5060841;28;1128;-81
2023/03/08 02:04:09;;;;;;;;;;;;;;;22.11;27.27;97053.50;5060818;28;1129;-81
2023/03/08 02:06:35;;;;;;;;;;;;;;;22.12;27.26;97046.56;5060647;28;1098;-81
2023/03/08 02:09:03;;;;;;;;;;;;;;;22.21;26.63;97052.25;5078207;28;1967;-81
2023/03/08 02:11:31;;;;;;;;;;;;;;;21.90;26.88;97052.34;5060809;28;1086;-81
2023/03/08 02:13:56;;;;;;;;;;;;;;;21.52;27.37;97059.19;5060678;28;1226;-81
2023/03/08 02:16:22;;;;;;;;;;;;;;;21.75;27.11;97045.72;5061128;28;1242;-81
2023/03/08 02:18:58;;;;;;;;;;;;;;;21.80;27.57;97037.38;5060652;28;1213;-81
2023/03/08 02:21:24;;;;;;;;;;;;;;;22.27;26.86;97046.72;5060245;28;1372;-81
2023/03/08 02:23:51;;;;;;;;;;;;;;;22.00;26.92;97050.31;5077239;28;832;-81
2023/03/08 02:26:16;;;;;;;;;;;;;;;21.89;26.89;97059.28;5076937;28;848;-81
2023/03/08 02:28:42;;;;;;;;;;;;;;;21.69;27.48;97065.38;5076765;28;1976;-80
2023/03/08 02:31:08;;;;;;;;;;;;;;;21.79;27.13;97064.13;5076988;28;912;-81
2023/03/08 02:33:35;;;;;;;;;;;;;;;22.15;27.09;97068.31;5044347;28;1103;-81
2023/03/08 02:36:01;;;;;;;;;;;;;;;22.40;26.52;97069.25;5076719;28;859;-81
2023/03/08 02:38:27;;;;;;;;;;;;;;;22.04;26.86;97073.63;5060003;28;1253;-81
2023/03/08 02:40:52;;;;;;;;;;;;;;;21.85;27.38;97056.59;5060341;28;1105;-81
2023/03/08 02:43:18;;;;;;;;;;;;;;;21.72;27.45;97067.28;5041805;28;1286;-81
2023/03/08 02:45:44;;;;;;;;;;;;;;;21.89;27.45;97058.50;5059192;28;818;-81
2023/03/08 02:48:10;;;;;;;;;;;;;;;22.25;26.61;97061.38;5058680;28;1125;-81
2023/03/08 02:50:35;;;;;;;;;;;;;;;22.26;26.73;97065.00;5058538;28;1914;-81
2023/03/08 02:53:01;;;;;;;;;;;;;;;22.06;26.79;97056.94;5058651;28;1010;-81
2023/03/08 02:55:27;;;;;;;;;;;;;;;21.87;26.95;97058.19;5042065;28;1126;-81
2023/03/08 02:57:53;;;;;;;;;;;;;;;22.01;26.96;97063.22;5058427;28;1213;-81
2023/03/08 03:00:19;;;;;;;;;;;;;;;21.87;27.39;97063.84;5058350;28;1180;-80
2023/03/08 03:02:44;;;;;;;;;;;;;;;22.24;26.94;97059.81;5058771;28;1131;-81
2023/03/08 03:05:10;;;;;;;;;;;;;;;22.02;26.83;97059.94;5058211;28;1331;-81
2023/03/08 03:07:38;;;;;;;;;;;;;;;21.96;27.00;97063.84;5041987;28;1271;-81
2023/03/08 03:10:05;;;;;;;;;;;;;;;21.82;26.81;97057.53;5041403;28;1910;-81
2023/03/08 03:12:30;;;;;;;;;;;;;;;21.64;27.15;97060.31;5074898;28;1294;-81
2023/03/08 03:14:56;;;;;;;;;;;;;;;21.99;27.16;97055.19;5057346;28;1121;-81
2023/03/08 03:17:22;;;;;;;;;;;;;;;22.04;27.18;97065.13;5057693;28;887;-80
2023/03/08 03:19:47;;;;;;;;;;;;;;;22.26;26.85;97057.28;5058349;28;1296;-80
2023/03/08 03:22:13;;;;;;;;;;;;;;;22.03;26.86;97057.88;5059467;28;1225;-81
2023/03/08 03:24:38;;;;;;;;;;;;;;;21.70;27.52;97061.28;5059240;28;1105;-81
2023/03/08 03:27:06;;;;;;;;;;;;;;;21.87;27.26;97063.84;5076268;28;1257;-81
2023/03/08 03:29:33;;;;;;;;;;;;;;;21.90;27.00;97018.38;5075658;28;1971;-81
2023/03/08 03:32:14;;;;;;;;;;;;;;;22.28;26.89;97071.78;5075866;28;1238;-81
2023/03/08 03:34:40;;;;;;;;;;;;;;;22.06;26.90;97076.75;5075441;28;844;-81
2023/03/08 03:37:06;;;;;;;;;;;;;;;22.03;26.70;97081.34;5059242;28;1117;-81
2023/03/08 03:39:36;;;;;;;;;;;;;;;21.88;27.06;97082.41;5059424;28;1169;-81
2023/03/08 03:42:05;;;;;;;;;;;;;;;21.89;27.61;97079.09;5041500;28;1580;-81
2023/03/08 03:44:31;;;;;;;;;;;;;;;22.06;26.87;97082.44;5057327;28;1159;-81
2023/03/08 03:46:57;;;;;;;;;;;;;;;22.14;26.74;97083.75;5037749;28;1244;-81
2023/03/08 03:49:25;;;;;;;;;;;;;;;21.92;27.06;97083.06;5020922;28;1902;-80
2023/03/08 03:51:50;;;;;;;;;;;;;;;21.82;27.22;97090.75;5021219;28;1281;-81
2023/03/08 03:54:23;;;;;;;;;;;;;;;21.71;27.52;97090.38;5018160;28;1298;-81
2023/03/08 03:56:49;;;;;;;;;;;;;;;21.72;27.46;97095.59;5017604;28;1107;-81
2023/03/08 03:59:18;;;;;;;;;;;;;;;22.06;27.20;97085.25;5033855;28;1000;-81
2023/03/08 04:01:44;;;;;;;;;;;;;;;22.39;26.38;97081.88;5001338;28;1180;-80
2023/03/08 04:04:19;;;;;;;;;;;;;;;21.92;27.17;97078.19;5002218;28;1234;-80
2023/03/08 04:06:46;;;;;;;;;;;;;;;21.80;27.41;97082.69;4985206;28;1111;-81
2023/03/08 04:09:15;;;;;;;;;;;;;;;21.74;27.52;97087.41;5017415;28;1910;-81
2023/03/08 04:11:44;;;;;;;;;;;;;;;21.99;27.03;97088.41;5001569;28;1322;-81
2023/03/08 04:14:14;;;;;;;;;;;;;;;22.17;26.82;97088.44;4981955;28;1237;-81
2023/03/08 04:16:41;;;;;;;;;;;;;;;22.18;26.50;97090.03;4959139;28;1160;-81
2023/03/08 04:19:14;;;;;;;;;;;;;;;21.84;27.35;97091.06;4998391;28;1190;-81
2023/03/08 04:21:46;;;;;;;;;;;;;;;21.83;27.09;97087.44;4997647;28;1289;-81
2023/03/08 04:24:14;;;;;;;;;;;;;;;21.96;27.37;97084.47;4982427;28;1294;-81
2023/03/08 04:26:39;;;;;;;;;;;;;;;22.18;26.88;97090.03;5020289;28;1134;-81
2023/03/08 04:29:05;;;;;;;;;;;;;;;22.50;26.46;97080.13;5037356;28;1971;-81
2023/03/08 04:31:34;;;;;;;;;;;;;;;22.03;26.76;97083.38;5021286;28;1170;-80
2023/03/08 04:34:02;;;;;;;;;;;;;;;21.91;27.22;97087.13;5021201;28;1194;-81
2023/03/08 04:36:28;;;;;;;;;;;;;;;21.78;26.99;97079.56;5021754;28;1186;-81
2023/03/08 04:38:57;;;;;;;;;;;;;;;22.05;27.16;97080.84;5021709;28;1103;-81
2023/03/08 04:41:23;;;;;;;;;;;;;;;22.15;26.66;97085.31;5021352;28;1135;-81
2023/03/08 04:44:12;;;;;;;;;;;;;;;21.94;26.72;97080.53;4978800;28;986;-81
2023/03/08 04:46:42;;;;;;;;;;;;;;;21.80;27.11;97082.69;4963275;28;1227;-81
2023/03/08 04:49:13;;;;;;;;;;;;;;;21.78;27.16;97071.06;4962169;28;1911;-81
2023/03/08 04:51:42;;;;;;;;;;;;;;;21.85;27.08;97079.25;4964368;28;1174;-81
2023/03/08 04:54:09;;;;;;;;;;;;;;;22.29;26.64;97078.25;4965547;28;1287;-81
2023/03/08 04:56:40;;;;;;;;;;;;;;;22.39;26.31;97076.97;4968120;28;1106;-81
2023/03/08 04:59:05;;;;;;;;;;;;;;;21.96;27.18;97083.66;5001085;28;1260;-81
2023/03/08 05:01:31;;;;;;;;;;;;;;;21.79;27.23;97080.34;5017214;28;1317;-81
2023/03/08 05:03:57;;;;;;;;;;;;;;;21.73;27.39;97080.19;5000857;28;1076;-81
2023/03/08 05:06:31;;;;;;;;;;;;;;;22.10;26.89;97088.72;5001105;28;1347;-81
2023/03/08 05:08:56;;;;;;;;;;;;;;;22.18;26.63;97095.72;4984419;28;1967;-81
2023/03/08 05:11:24;;;;;;;;;;;;;;;22.10;26.64;97089.53;5001169;28;1068;-81
2023/03/08 05:13:51;;;;;;;;;;;;;;;22.00;26.79;97089.97;4981361;28;1240;-81
2023/03/08 05:16:18;;;;;;;;;;;;;;;21.77;27.17;97099.84;4981624;28;1117;-81
2023/03/08 05:18:44;;;;;;;;;;;;;;;21.99;27.33;97105.41;4981372;28;1097;-81
2023/03/08 05:21:11;;;;;;;;;;;;;;;22.28;26.73;97111.47;4984349;28;1366;-81
2023/03/08 05:23:38;;;;;;;;;;;;;;;22.28;26.53;97117.13;4988475;28;1250;-82
2023/03/08 05:26:04;;;;;;;;;;;;;;;21.79;27.13;97112.28;5003914;28;1091;-82
2023/03/08 05:28:31;;;;;;;;;;;;;;;21.88;26.96;97117.19;5003382;28;1095;-82
2023/03/08 05:31:03;;;;;;;;;;;;;;;21.63;27.37;97118.19;5003684;28;1910;-83
2023/03/08 05:33:30;;;;;;;;;;;;;;;21.89;27.46;97117.97;5006486;28;1378;-83
2023/03/08 05:35:56;;;;;;;;;;;;;;;22.31;26.47;97121.84;5039695;28;1332;-82
2023/03/08 05:38:22;;;;;;;;;;;;;;;22.30;26.58;97113.81;5038537;28;1157;-82
2023/03/08 05:40:48;;;;;;;;;;;;;;;21.92;27.22;97122.72;5039257;28;1308;-82
2023/03/08 05:43:15;;;;;;;;;;;;;;;21.71;26.97;97113.84;5038894;28;1482;-82
2023/03/08 05:45:40;;;;;;;;;;;;;;;21.71;27.80;97122.34;5054850;28;1074;-82
2023/03/08 05:48:06;;;;;;;;;;;;;;;22.26;27.05;97122.47;5060529;28;1267;-82
2023/03/08 05:50:35;;;;;;;;;;;;;;;22.42;26.58;97126.25;5076799;28;1922;-83
2023/03/08 05:53:01;;;;;;;;;;;;;;;22.49;26.26;97134.47;5061458;28;1266;-83
2023/03/08 05:55:28;;;;;;;;;;;;;;;22.36;26.77;97134.59;5061611;28;1154;-82
2023/03/08 05:57:55;;;;;;;;;;;;;;;21.97;26.95;97136.25;5061339;28;1239;-83
2023/03/08 06:00:21;;;;;;;;;;;;;;;21.87;27.25;97143.16;5061095;28;1271;-83
2023/03/08 06:02:52;;;;;;;;;;;;;;;21.81;27.16;97135.25;5080557;28;1076;-83
2023/03/08 06:05:19;;;;;;;;;;;;;;;21.65;27.29;97131.88;5076609;28;1140;-82
2023/03/08 06:07:46;;;;;;;;;;;;;;;22.10;27.25;97139.72;5059673;28;1122;-83
2023/03/08 06:10:13;;;;;;;;;;;;;;;22.03;27.14;97140.03;5059554;28;2001;-83
2023/03/08 06:12:38;;;;;;;;;;;;;;;22.08;27.25;97130.91;5039471;28;1300;-83
2023/03/08 06:15:07;;;;;;;;;;;;;;;21.69;27.76;97133.31;5040142;28;1099;-83
2023/03/08 06:17:35;;;;;;;;;;;;;;;21.83;27.20;97144.06;5023222;28;1205;-81
2023/03/08 06:20:01;;;;;;;;;;;;;;;21.66;27.37;97145.59;5039425;28;999;-82
2023/03/08 06:22:29;;;;;;;;;;;;;;;21.87;27.36;97171.47;5023094;28;1110;-82
2023/03/08 06:24:55;;;;;;;;;;;;;;;22.23;27.06;97154.59;5039637;28;1114;-83
2023/03/08 06:27:32;;;;;;;;;;;;;;;22.14;27.10;97151.72;5040667;28;1138;-82
2023/03/08 06:30:01;;;;;;;;;;;;;;;21.97;27.05;97158.91;5055052;28;1973;-81
2023/03/08 06:32:30;;;;;;;;;;;;;;;21.89;27.11;97149.91;5035636;28;1238;-81
2023/03/08 06:34:55;;;;;;;;;;;;;;;21.84;27.36;97167.50;5000592;28;1183;-80
2023/03/08 06:37:21;;;;;;;;;;;;;;;22.24;26.75;97167.50;5017653;28;1092;-79
2023/03/08 06:39:47;;;;;;;;;;;;;;;22.44;26.63;97164.22;5035302;28;1172;-81
2023/03/08 06:42:12;;;;;;;;;;;;;;;22.03;26.98;97162.69;5035670;28;1152;-80
2023/03/08 06:44:38;;;;;;;;;;;;;;;21.77;27.39;97160.09;5018708;28;1137;-81
2023/03/08 06:47:04;;;;;;;;;;;;;;;21.56;27.80;97160.97;5019140;28;1060;-82
2023/03/08 06:49:29;;;;;;;;;;;;;;;21.90;27.46;97159.97;5013723;28;2003;-80
2023/03/08 06:51:55;;;;;;;;;;;;;;;22.16;27.10;97169.03;4999258;28;832;-81
2023/03/08 06:54:23;;;;;;;;;;;;;;;22.27;26.68;97169.38;4999163;28;1198;-82
2023/03/08 06:59:37;;;;;;;;;;;;;;;22.91;25.94;97173.56;4940773;26;1713;-80
2023/03/08 07:02:03;;;;;;;;;;;;;;;22.92;26.03;97170.22;5108812;23;3649;-75
2023/03/08 07:04:28;;;;;;;;;;;;;;;23.44;25.79;97173.91;5000711;28;1087;-75
2023/03/08 07:06:54;;;;;;;;;;;;;;;22.54;26.82;97179.19;5017692;28;916;-75
2023/03/08 07:09:20;;;;;;;;;;;;;;;22.19;27.38;97184.34;5000350;28;1926;-75
2023/03/08 07:11:45;;;;;;;;;;;;;;;21.82;27.29;97182.16;4984025;28;1176;-74
2023/03/08 07:14:11;;;;;;;;;;;;;;;21.60;27.60;97187.06;4983943;28;1156;-74
2023/03/08 07:16:36;;;;;;;;;;;;;;;21.89;27.23;97188.78;4999855;28;1015;-75
2023/03/08 07:19:02;;;;;;;;;;;;;;;22.02;26.57;97183.75;4976157;28;1370;-74
2023/03/08 07:21:27;;;;;;;;;;;;;;;21.99;26.71;97193.22;4944301;28;1135;-75
2023/03/08 07:23:53;;;;;;;;;;;;;;;21.69;26.80;97200.47;4928502;28;1130;-74
2023/03/08 07:26:19;;;;;;;;;;;;;;;21.57;26.88;97193.69;4976609;28;963;-75
2023/03/08 07:28:47;;;;;;;;;;;;;;;21.50;27.01;97210.91;4944045;28;1986;-75
2023/03/08 07:31:12;;;;;;;;;;;;;;;21.82;26.28;97193.47;4976343;28;1042;-74
2023/03/08 07:33:38;;;;;;;;;;;;;;;22.03;25.75;97203.16;4937216;29;903;-74
2023/03/08 07:36:03;;;;;;;;;;;;;;;22.23;25.67;97211.25;4906030;29;1138;-74
2023/03/08 07:38:29;;;;;;;;;;;;;;;21.42;26.47;97192.66;4922006;29;931;-75
2023/03/08 07:40:55;;;;;;;;;;;;;;;21.60;26.47;97204.06;4937592;29;948;-75
2023/03/08 07:43:20;;;;;;;;;;;;;;;21.71;26.06;97204.44;4937644;29;1008;-74
2023/03/08 07:46:03;;;;;;;;;;;;;;;22.03;25.43;97208.81;4937364;29;962;-74
2023/03/08 07:48:29;;;;;;;;;;;;;;;22.27;25.06;97211.88;4937179;29;1197;-75
2023/03/08 07:50:59;;;;;;;;;;;;;;;22.08;25.17;97221.56;4932340;29;1991;-75
2023/03/08 07:53:24;;;;;;;;;;;;;;;21.95;25.38;97213.19;4905692;29;1317;-75
2023/03/08 07:55:50;;;;;;;;;;;;;;;21.92;25.43;97216.16;4905568;29;956;-75
2023/03/08 07:58:15;;;;;;;;;;;;;;;21.45;26.07;97214.34;4937102;29;963;-74
2023/03/08 08:00:41;;;;;;;;;;;;;;;21.85;25.35;97220.84;4936528;29;947;-75
2023/03/08 08:03:06;;;;;;;;;;;;;;;21.83;25.28;97223.38;4937287;29;1109;-74
2023/03/08 08:05:33;;;;;;;;;;;;;;;21.98;24.95;97228.47;4954243;29;996;-75
2023/03/08 08:07:59;;;;;;;;;;;;;;;21.83;25.29;97229.03;4940584;29;976;-75
2023/03/08 08:10:26;;;;;;;;;;;;;;;21.66;25.25;97230.53;4956129;29;1981;-75
2023/03/08 08:12:51;;;;;;;;;;;;;;;21.57;25.34;97224.81;4939839;29;1004;-74
2023/03/08 08:15:18;;;;;;;;;;;;;;;21.91;25.07;97223.06;4939932;29;853;-74
2023/03/08 08:17:43;;;;;;;;;;;;;;;22.13;24.58;97218.16;4955956;29;1124;-75
2023/03/08 08:20:09;;;;;;;;;;;;;;;22.29;24.19;97219.94;4956115;29;920;-75
2023/03/08 08:22:35;;;;;;;;;;;;;;;22.17;24.37;97224.44;5002347;28;927;-74
2023/03/08 08:25:03;;;;;;;;;;;;;;;21.61;25.16;97221.84;4998736;28;926;-74
2023/03/08 08:27:28;;;;;;;;;;;;;;;21.54;25.25;97222.91;4983293;28;1047;-75
2023/03/08 08:29:55;;;;;;;;;;;;;;;21.66;25.40;97212.72;4982812;28;1983;-74
2023/03/08 08:32:20;;;;;;;;;;;;;;;22.10;24.61;97214.19;4999418;28;1025;-75
2023/03/08 08:34:46;;;;;;;;;;;;;;;22.35;23.99;97223.72;4998926;28;847;-75
2023/03/08 08:37:11;;;;;;;;;;;;;;;22.16;24.23;97222.88;5016191;28;1062;-75
2023/03/08 08:39:37;;;;;;;;;;;;;;;21.88;24.52;97218.34;4958623;28;1053;-74
2023/03/08 08:42:02;;;;;;;;;;;;;;;21.48;25.12;97219.88;4943084;28;1478;-75
2023/03/08 08:44:28;;;;;;;;;;;;;;;21.54;25.10;97211.56;4958972;28;882;-74
2023/03/08 08:46:54;;;;;;;;;;;;;;;21.89;24.91;97208.59;4975657;28;875;-75
2023/03/08 08:49:19;;;;;;;;;;;;;;;21.92;24.57;97211.28;4958950;28;1970;-75
2023/03/08 08:51:45;;;;;;;;;;;;;;;22.17;24.11;97198.94;4955370;29;942;-75
2023/03/08 08:54:10;;;;;;;;;;;;;;;22.10;24.31;97202.06;4955852;29;1018;-75
2023/03/08 08:56:41;;;;;;;;;;;;;;;21.86;24.89;97204.63;4939731;29;1219;-75
2023/03/08 08:59:07;;;;;;;;;;;;;;;21.68;24.84;97205.34;4924383;29;1145;-75
2023/03/08 09:01:34;;;;;;;;;;;;;;;21.66;25.04;97210.72;4939692;29;1040;-74
2023/03/08 09:04:00;;;;;;;;;;;;;;;21.71;25.14;97192.31;4920501;29;1238;-75
2023/03/08 09:06:25;;;;;;;;;;;;;;;21.96;24.84;97208.28;4920530;29;1216;-75
2023/03/08 09:08:52;;;;;;;;;;;;;;;22.12;24.54;97204.44;4920674;29;1899;-75
2023/03/08 09:11:17;;;;;;;;;;;;;;;21.70;24.83;97202.84;4920264;29;957;-75
2023/03/08 09:13:43;;;;;;;;;;;;;;;21.73;25.16;97195.47;4939346;29;1017;-75
2023/03/08 09:16:18;;;;;;;;;;;;;;;21.57;25.16;97196.50;4924102;29;1228;-75
2023/03/08 09:18:43;;;;;;;;;;;;;;;22.05;24.49;97199.84;4939980;29;1308;-74
2023/03/08 09:21:09;;;;;;;;;;;;;;;22.09;24.42;97195.59;4923796;29;950;-75
2023/03/08 09:23:35;;;;;;;;;;;;;;;22.01;24.48;97199.97;4917687;29;993;-75
2023/03/08 09:26:00;;;;;;;;;;;;;;;22.26;24.23;97198.97;4920790;29;1106;-75
2023/03/08 09:28:26;;;;;;;;;;;;;;;21.76;25.12;97195.34;4920257;29;977;-75
2023/03/08 09:30:52;;;;;;;;;;;;;;;21.73;25.10;97201.94;4920747;29;1985;-75
2023/03/08 09:33:18;;;;;;;;;;;;;;;21.63;25.01;97203.13;4920263;29;1012;-76
2023/03/08 09:35:43;;;;;;;;;;;;;;;21.87;24.87;97196.97;4951450;29;965;-75
2023/03/08 09:38:09;;;;;;;;;;;;;;;21.83;24.80;97206.38;4885816;29;1111;-75
2023/03/08 09:40:37;;;;;;;;;;;;;;;21.94;24.56;97202.31;4901735;29;957;-75
2023/03/08 09:43:03;;;;;;;;;;;;;;;21.78;24.62;97201.31;4901698;29;924;-75
2023/03/08 09:45:29;;;;;;;;;;;;;;;21.65;24.81;97189.28;4901340;29;976;-75
2023/03/08 09:48:05;;;;;;;;;;;;;;;21.47;25.22;97195.66;4901210;29;1035;-75
2023/03/08 09:50:43;;;;;;;;;;;;;;;21.81;24.81;97194.72;4917128;29;1919;-75
2023/03/08 09:53:08;;;;;;;;;;;;;;;22.17;24.05;97198.16;4920303;29;963;-75
2023/03/08 09:55:35;;;;;;;;;;;;;;;21.90;24.40;97193.16;4919721;29;1189;-74
2023/03/08 09:58:29;;;;;;;;;;;;;;;21.67;24.71;97186.81;4904352;29;974;-75
2023/03/08 10:00:56;;;;;;;;;;;;;;;21.29;24.80;97161.56;4881050;29;982;-74
2023/03/08 10:04:00;;;;;;;;;;;;;;;21.46;24.99;97187.66;4870053;29;1053;-76
2023/03/08 10:06:25;;;;;;;;;;;;;;;21.97;24.31;97188.03;4863611;29;1189;-69
2023/03/08 10:09:01;;;;;;;;;;;;;;;22.18;24.12;97186.38;4885665;29;1911;-75
2023/03/08 10:11:36;;;;;;;;;;;;;;;21.79;24.78;97177.41;4919758;29;1554;-75
2023/03/08 10:14:04;;;;;;;;;;;;;;;21.74;24.56;97185.72;4903620;29;1621;-76
2023/03/08 10:16:32;;;;;;;;;;;;;;;21.55;24.83;97173.53;4913092;29;1962;-76
2023/03/08 10:19:04;;;;;;;;;;;;;;;21.89;24.30;97183.88;4903788;29;968;-76
2023/03/08 10:21:30;;;;;;;;;;;;;;;22.17;24.05;97173.44;4919913;29;933;-76
2023/03/08 10:24:15;;;;;;;;;;;;;;;22.27;23.88;97171.41;4919076;29;1129;-76
2023/03/08 10:26:41;;;;;;;;;;;;;;;21.68;24.66;97182.72;4919499;29;1049;-76
2023/03/08 10:29:08;;;;;;;;;;;;;;;21.69;24.60;97177.84;4919547;29;1998;-76
2023/03/08 10:31:33;;;;;;;;;;;;;;;21.70;24.80;97176.56;4919405;29;953;-76
2023/03/08 10:34:08;;;;;;;;;;;;;;;21.90;24.27;97181.84;4919619;29;1008;-76
2023/03/08 10:36:33;;;;;;;;;;;;;;;21.96;24.18;97168.63;4940727;28;1016;-76
2023/03/08 10:38:59;;;;;;;;;;;;;;;22.03;24.22;97171.19;5016545;28;882;-75
2023/03/08 10:41:25;;;;;;;;;;;;;;;21.73;24.70;97173.59;5017751;28;905;-76
2023/03/08 10:43:51;;;;;;;;;;;;;;;21.58;24.70;97166.94;5017132;28;993;-76
2023/03/08 10:46:18;;;;;;;;;;;;;;;21.61;24.92;97159.56;4999294;28;1145;-76
2023/03/08 10:48:44;;;;;;;;;;;;;;;21.97;24.28;97164.56;4999626;28;941;-76
2023/03/08 10:51:18;;;;;;;;;;;;;;;22.04;24.13;97159.38;4982940;28;1910;-76
2023/03/08 10:53:54;;;;;;;;;;;;;;;22.08;24.13;97170.59;4999396;28;1071;-75
2023/03/08 10:56:32;;;;;;;;;;;;;;;21.93;24.45;97163.94;4999129;28;1006;-76
2023/03/08 10:58:57;;;;;;;;;;;;;;;21.74;24.48;97158.19;4982971;28;1141;-75
2023/03/08 11:01:25;;;;;;;;;;;;;;;21.65;24.61;97152.50;4999538;28;922;-76
2023/03/08 11:03:59;;;;;;;;;;;;;;;22.00;24.35;97155.13;4998990;28;1046;-76
2023/03/08 11:06:24;;;;;;;;;;;;;;;22.21;23.89;97151.41;4957108;29;1243;-76
2023/03/08 11:08:51;;;;;;;;;;;;;;;22.30;23.87;97157.09;4940734;29;1972;-76
2023/03/08 11:11:17;;;;;;;;;;;;;;;21.67;24.92;97152.03;4902878;29;1247;-76
2023/03/08 11:13:46;;;;;;;;;;;;;;;21.58;24.94;97147.13;4918911;29;1022;-75
2023/03/08 11:16:18;;;;;;;;;;;;;;;21.46;25.02;97148.03;4917144;29;958;-75
2023/03/08 11:18:44;;;;;;;;;;;;;;;21.95;24.46;97144.41;4899938;29;1005;-75
2023/03/08 11:21:19;;;;;;;;;;;;;;;22.26;23.94;97147.97;4918776;29;1253;-76
2023/03/08 11:24:03;;;;;;;;;;;;;;;22.26;23.94;97153.63;4918616;29;1018;-75
2023/03/08 11:26:33;;;;;;;;;;;;;;;21.75;24.57;97142.00;4918449;29;961;-76
2023/03/08 11:28:58;;;;;;;;;;;;;;;21.49;24.86;97147.06;4918531;29;1902;-76
2023/03/08 11:31:27;;;;;;;;;;;;;;;21.56;24.72;97141.16;4918544;29;1404;-76
2023/03/08 11:34:12;;;;;;;;;;;;;;;22.05;24.09;97143.19;4918490;29;1041;-75
2023/03/08 11:36:40;;;;;;;;;;;;;;;22.28;23.93;97145.47;4933501;29;1135;-75
2023/03/08 11:39:24;;;;;;;;;;;;;;;22.12;24.26;97142.91;4918165;29;985;-76
2023/03/08 11:42:00;;;;;;;;;;;;;;;21.80;24.47;97150.66;4918353;29;1134;-75
2023/03/08 11:44:30;;;;;;;;;;;;;;;21.51;24.84;97150.25;4965646;28;1113;-76
2023/03/08 11:47:18;;;;;;;;;;;;;;;21.96;24.44;97145.97;4975529;28;1004;-75
2023/03/08 11:49:45;;;;;;;;;;;;;;;22.34;23.57;97152.09;4936823;29;1981;-75
2023/03/08 11:52:36;;;;;;;;;;;;;;;22.36;23.77;97152.38;4956606;28;966;-75
2023/03/08 11:55:04;;;;;;;;;;;;;;;21.84;24.26;97147.69;4959308;28;1053;-75
2023/03/08 11:57:33;;;;;;;;;;;;;;;21.58;24.62;97149.94;4959486;28;1398;-75
2023/03/08 12:00:11;;;;;;;;;;;;;;;21.91;24.63;97144.56;4943520;28;1069;-75
2023/03/08 12:02:39;;;;;;;;;;;;;;;22.18;23.94;97141.03;4944753;28;1579;-75
2023/03/08 12:05:04;;;;;;;;;;;;;;;22.12;23.84;97137.22;4959396;28;894;-76
2023/03/08 12:07:31;;;;;;;;;;;;;;;21.68;24.74;97137.41;4975270;28;998;-75
2023/03/08 12:10:08;;;;;;;;;;;;;;;21.65;24.62;97137.53;4959086;28;1967;-76
2023/03/08 12:12:36;;;;;;;;;;;;;;;21.54;24.88;97132.31;4959246;28;1158;-75
2023/03/08 12:15:05;;;;;;;;;;;;;;;21.96;24.23;97134.66;4959176;28;1144;-76
2023/03/08 12:17:34;;;;;;;;;;;;;;;22.13;23.99;97143.72;4917694;29;1183;-75
2023/03/08 12:20:00;;;;;;;;;;;;;;;21.98;24.11;97118.00;4901849;29;1115;-75
2023/03/08 12:22:26;;;;;;;;;;;;;;;21.92;24.17;97122.72;4902144;29;978;-76
2023/03/08 12:24:52;;;;;;;;;;;;;;;21.62;24.99;97127.19;4879725;29;1254;-75
2023/03/08 12:27:28;;;;;;;;;;;;;;;21.65;24.79;97118.50;4876943;29;1154;-75
2023/03/08 12:29:55;;;;;;;;;;;;;;;21.52;25.12;97129.19;4886215;29;1915;-76
2023/03/08 12:32:21;;;;;;;;;;;;;;;22.10;23.95;97111.41;4917674;29;972;-76
2023/03/08 12:34:46;;;;;;;;;;;;;;;22.22;23.75;97113.31;4917543;29;917;-76
2023/03/08 12:37:19;;;;;;;;;;;;;;;21.95;24.37;97121.75;4886283;29;1075;-75
2023/03/08 12:39:53;;;;;;;;;;;;;;;21.76;24.37;97124.56;4917742;29;990;-75
2023/03/08 12:42:34;;;;;;;;;;;;;;;21.68;24.50;97123.25;4917547;29;1210;-76
2023/03/08 12:45:18;;;;;;;;;;;;;;;21.62;24.71;97116.63;4879985;29;998;-75
2023/03/08 12:47:54;;;;;;;;;;;;;;;22.01;23.95;97117.03;4883359;29;1176;-76
2023/03/08 12:50:19;;;;;;;;;;;;;;;22.27;23.82;97121.19;4883670;29;1974;-75
2023/03/08 12:52:45;;;;;;;;;;;;;;;21.97;23.94;97122.09;4883618;29;945;-76
2023/03/08 12:55:21;;;;;;;;;;;;;;;21.64;24.48;97119.00;4901453;29;1166;-76
2023/03/08 12:57:46;;;;;;;;;;;;;;;21.49;24.90;97118.78;4908552;29;1130;-75
2023/03/08 13:00:31;;;;;;;;;;;;;;;21.79;24.40;97117.94;4939992;29;1193;-76
2023/03/08 13:03:24;;;;;;;;;;;;;;;22.25;23.88;97118.06;4953320;28;1389;-75
2023/03/08 13:05:51;;;;;;;;;;;;;;;21.82;24.54;97108.53;4978745;28;975;-75
2023/03/08 13:08:22;;;;;;;;;;;;;;;21.66;24.52;97105.97;4946463;28;1221;-76